CYXJ

Fort St. John

Airport
ICAO code
CYXJ
IATA Code
YXJ
Summary
ICAO Region
NAM
ICAO Territory
Location

Fort St. John, British Columbia,

Serving
Fort St. John
Elevation
2280 ft
Coordinates
56° 14' 13" N , 120° 44' 25" W
KCC
Dfb
Metar
Observation
CYXJ 110500Z 16004KT 60SM FEW080 FEW240 19/10 A2992 RMK AC2CI1 CI TR SLP136 DENSITY ALT 3400FT
Station
Fort St John, B. C.
Date/Time
2022-08-11 05:00:00
Wind direction
160°
Wind speed
04 kts
Lowest cloud amount
few clouds
Temperature
19°C
Dew point
10°C
Humidity
55%
Weather condition
n/a

Description

Fort St. John Airport, North Peace Regional Airport, or North Peace Airport, is located at Fort St. John, British Columbia, Canada.

Climatology

Humid Continental climate (Köppen climate classification Dfb) - Variable weather patterns and a large seasonal temperature variance. Summers are often warm and humid with frequent thunderstorms and winters can be very cold with frequent snowfall and persistent snow cover.

Runways

Designator Length Width Surface Rops
2/20 2042 61 ASP Yes/Yes
11/29 2103 46 ASP Yes/Yes

Airport map

Aerial View

SKYbrary Partners:

Safety knowledge contributed by: